createdAt,value
2022-12-03T00:00:54.880Z,99.99
2022-12-03T00:03:57.317Z,99.99
2022-12-03T00:06:59.627Z,99.99
2022-12-03T00:10:02.018Z,99.99
2022-12-03T00:13:04.225Z,99.99
2022-12-03T00:16:06.624Z,99.99
2022-12-03T00:19:10.627Z,99.99
2022-12-03T00:22:12.998Z,99.99
2022-12-03T00:25:15.386Z,99.99
2022-12-03T00:28:17.660Z,99.99
2022-12-03T00:31:21.487Z,99.99
2022-12-03T00:34:23.873Z,99.99
2022-12-03T00:37:26.077Z,99.99
2022-12-03T00:40:28.436Z,99.99
2022-12-03T00:43:30.693Z,99.99
2022-12-03T00:46:33.014Z,99.99
2022-12-03T00:49:35.490Z,99.99
2022-12-03T00:52:37.884Z,99.99
2022-12-03T00:55:40.144Z,99.99
2022-12-03T00:58:42.380Z,99.99
2022-12-03T01:01:44.639Z,99.99
2022-12-03T01:04:46.993Z,99.99
2022-12-03T01:07:49.379Z,99.99
2022-12-03T01:10:51.682Z,99.99
2022-12-03T01:13:53.928Z,99.99
2022-12-03T01:16:56.161Z,99.99
2022-12-03T01:19:59.179Z,99.99
2022-12-03T01:23:01.443Z,99.99
2022-12-03T01:26:03.962Z,99.99
2022-12-03T01:29:06.608Z,99.99
2022-12-03T01:32:22.275Z,99.99
2022-12-03T01:35:24.543Z,99.99
2022-12-03T01:38:26.770Z,99.99
2022-12-03T01:41:29.816Z,99.99
2022-12-03T01:44:34.762Z,99.99
2022-12-03T01:47:38.173Z,99.99
2022-12-03T01:50:40.409Z,99.99
2022-12-03T01:53:44.179Z,99.99
2022-12-03T01:56:47.235Z,99.99
2022-12-03T01:59:49.987Z,99.99
2022-12-03T02:02:55.201Z,99.99
2022-12-03T02:05:57.515Z,99.99
2022-12-03T02:09:00.270Z,99.99
2022-12-03T02:12:02.523Z,99.99
2022-12-03T02:15:08.900Z,99.99
2022-12-03T02:18:11.571Z,99.99
2022-12-03T02:21:38.766Z,99.99
2022-12-03T02:24:48.678Z,99.99
2022-12-03T02:27:51.292Z,99.99
2022-12-03T02:30:53.572Z,99.99
2022-12-03T02:33:55.956Z,99.99
2022-12-03T02:36:58.207Z,99.99
2022-12-03T02:40:11.262Z,99.99
2022-12-03T02:43:16.588Z,99.99
2022-12-03T02:46:18.790Z,99.99
2022-12-03T02:49:21.074Z,99.99
2022-12-03T02:52:23.840Z,99.99
2022-12-03T02:55:30.667Z,99.99
2022-12-03T02:58:35.867Z,99.99
2022-12-03T03:01:38.306Z,99.99
2022-12-03T03:04:42.254Z,99.99
2022-12-03T03:07:45.096Z,99.99
2022-12-03T03:10:47.783Z,99.99
2022-12-03T03:13:50.084Z,99.99
2022-12-03T03:16:56.088Z,99.99
2022-12-03T03:19:58.507Z,99.99
2022-12-03T03:23:12.692Z,99.99
2022-12-03T03:26:16.568Z,99.99
2022-12-03T03:29:19.298Z,99.99
2022-12-03T03:32:21.599Z,99.99
2022-12-03T03:35:25.269Z,99.99
2022-12-03T03:38:29.864Z,99.99
2022-12-03T03:41:34.528Z,99.99
2022-12-03T03:44:36.858Z,99.99
2022-12-03T03:47:40.419Z,99.99
2022-12-03T03:50:44.595Z,99.99
2022-12-03T03:53:48.988Z,99.99
2022-12-03T03:56:52.062Z,99.99
2022-12-03T03:59:54.305Z,99.99
2022-12-03T04:02:56.572Z,99.99
2022-12-03T04:05:58.813Z,99.99
2022-12-03T04:09:01.046Z,99.99
2022-12-03T04:12:21.982Z,99.99
2022-12-03T04:15:25.341Z,99.99
2022-12-03T04:18:42.870Z,99.99
2022-12-03T04:22:03.770Z,99.99
2022-12-03T04:25:25.324Z,99.99
2022-12-03T04:28:46.949Z,99.99
2022-12-03T04:32:07.765Z,99.99
2022-12-03T04:35:28.889Z,99.99
2022-12-03T04:38:31.292Z,99.99
2022-12-03T04:41:39.972Z,99.99
2022-12-03T04:44:42.373Z,99.99
2022-12-03T04:47:50.872Z,99.99
2022-12-03T04:50:53.256Z,99.99
2022-12-03T04:53:55.493Z,99.99
2022-12-03T04:56:57.777Z,99.99
2022-12-03T05:00:00.086Z,99.99
2022-12-03T05:03:02.383Z,99.99
2022-12-03T05:06:04.700Z,99.99
2022-12-03T05:09:06.918Z,99.99
2022-12-03T05:12:09.200Z,99.99
2022-12-03T05:15:11.606Z,99.99
2022-12-03T05:18:13.944Z,99.99
2022-12-03T05:21:16.295Z,99.99
2022-12-03T05:24:18.525Z,99.99
2022-12-03T05:27:23.939Z,99.99
2022-12-03T05:30:26.812Z,99.99
2022-12-03T05:33:29.057Z,99.99
2022-12-03T05:36:31.287Z,99.99
2022-12-03T05:39:33.561Z,99.99
2022-12-03T05:42:54.207Z,99.99
2022-12-03T05:45:56.422Z,99.99
2022-12-03T05:48:58.748Z,99.99
2022-12-03T05:52:00.932Z,99.99
2022-12-03T05:55:04.368Z,99.99
2022-12-03T05:58:06.993Z,99.99
2022-12-03T06:01:09.271Z,99.99
2022-12-03T06:04:11.457Z,99.99
2022-12-03T06:07:14.284Z,99.99
2022-12-03T06:10:21.459Z,99.99
2022-12-03T06:13:23.698Z,99.99
2022-12-03T06:16:26.251Z,99.99
2022-12-03T06:19:28.644Z,99.99
2022-12-03T06:22:30.900Z,99.99
2022-12-03T06:25:33.168Z,99.99
2022-12-03T06:28:35.369Z,99.99
2022-12-03T06:31:37.648Z,99.99
2022-12-03T06:34:40.139Z,99.99
2022-12-03T06:37:42.401Z,99.77
2022-12-03T06:40:44.663Z,99.53
2022-12-03T06:43:47.092Z,99.19
2022-12-03T06:46:49.320Z,98.98
2022-12-03T06:49:51.555Z,98.84
2022-12-03T06:52:53.762Z,98.71
2022-12-03T06:55:55.992Z,98.09
2022-12-03T06:58:58.312Z,97.93
2022-12-03T07:02:01.180Z,96.85
2022-12-03T07:05:04.424Z,95.63
2022-12-03T07:08:06.928Z,95.54
2022-12-03T07:11:29.544Z,94.25
2022-12-03T07:14:31.822Z,94.28
2022-12-03T07:17:34.078Z,94.54
2022-12-03T07:20:39.367Z,95.34
2022-12-03T07:23:41.587Z,94.82
2022-12-03T07:26:43.867Z,94.10
2022-12-03T07:29:46.083Z,92.19
2022-12-03T07:32:48.333Z,92.20
2022-12-03T07:35:50.553Z,93.00
2022-12-03T07:38:52.818Z,90.85
2022-12-03T07:41:55.026Z,89.66
2022-12-03T07:44:58.403Z,86.48
2022-12-03T07:48:00.609Z,86.12
2022-12-03T07:51:03.016Z,85.73
2022-12-03T07:54:05.418Z,84.44
2022-12-03T07:57:07.660Z,84.21
2022-12-03T08:00:10.815Z,83.31
2022-12-03T08:03:13.255Z,81.32
2022-12-03T08:06:15.464Z,79.74
2022-12-03T08:09:17.759Z,82.00
2022-12-03T08:12:40.032Z,82.44
2022-12-03T08:15:49.111Z,83.31
2022-12-03T08:18:54.183Z,82.47
2022-12-03T08:22:01.072Z,82.56
2022-12-03T08:25:09.995Z,83.51
2022-12-03T08:28:19.520Z,85.11
2022-12-03T08:31:32.270Z,84.37
2022-12-03T08:34:40.421Z,85.15
2022-12-03T08:37:42.663Z,86.00
2022-12-03T08:40:46.891Z,81.79
2022-12-03T08:43:49.134Z,79.73
2022-12-03T08:47:02.395Z,79.21
2022-12-03T08:50:42.615Z,83.01
2022-12-03T08:53:48.715Z,84.19
2022-12-03T08:56:50.920Z,84.62
2022-12-03T08:59:58.950Z,84.08
2022-12-03T09:03:01.468Z,83.11
2022-12-03T09:06:04.565Z,81.69
2022-12-03T09:09:06.963Z,81.73
2022-12-03T09:12:09.334Z,84.46
2022-12-03T09:15:11.624Z,82.35
2022-12-03T09:18:17.017Z,82.15
2022-12-03T09:21:19.187Z,82.93
2022-12-03T09:24:21.494Z,83.90
2022-12-03T09:27:23.746Z,84.01
2022-12-03T09:30:26.020Z,82.54
2022-12-03T09:33:28.400Z,83.99
2022-12-03T09:36:30.899Z,82.84
2022-12-03T09:39:33.440Z,82.90
2022-12-03T09:42:36.032Z,81.26
2022-12-03T09:45:38.387Z,81.59
2022-12-03T09:48:40.774Z,82.14
2022-12-03T09:51:44.524Z,82.85
2022-12-03T09:54:47.809Z,83.74
2022-12-03T09:57:52.496Z,83.52
2022-12-03T10:00:55.594Z,83.69
2022-12-03T10:03:58.654Z,80.34
2022-12-03T10:07:01.510Z,80.63
2022-12-03T10:10:04.953Z,78.55
2022-12-03T10:13:12.610Z,77.00
2022-12-03T10:16:17.292Z,77.70
2022-12-03T10:19:24.335Z,79.72
2022-12-03T10:22:26.552Z,79.89
2022-12-03T10:25:28.915Z,81.24
2022-12-03T10:28:37.440Z,80.96
2022-12-03T10:31:40.300Z,80.43
2022-12-03T10:34:42.771Z,77.46
2022-12-03T10:38:06.766Z,77.61
2022-12-03T10:41:27.355Z,75.90
2022-12-03T10:44:30.691Z,78.24
2022-12-03T10:47:33.092Z,77.98
2022-12-03T10:50:35.800Z,75.64
2022-12-03T10:53:39.906Z,71.88
2022-12-03T10:56:42.377Z,69.75
2022-12-03T10:59:44.793Z,67.13
2022-12-03T11:02:53.358Z,68.52
2022-12-03T11:06:01.081Z,69.34
2022-12-03T11:09:08.817Z,71.01
2022-12-03T11:12:18.679Z,70.53
2022-12-03T11:15:45.238Z,72.94
2022-12-03T11:18:50.529Z,72.67
2022-12-03T11:22:05.236Z,72.81
2022-12-03T11:25:25.858Z,72.66
2022-12-03T11:28:28.179Z,71.35
2022-12-03T11:31:36.468Z,70.62
2022-12-03T11:34:42.103Z,73.87
2022-12-03T11:37:44.472Z,72.34
2022-12-03T11:41:09.461Z,71.13
2022-12-03T11:44:30.143Z,71.61
2022-12-03T11:47:33.984Z,70.78
2022-12-03T11:50:42.251Z,69.56
2022-12-03T11:53:45.347Z,69.77
2022-12-03T11:56:49.518Z,71.03
2022-12-03T11:59:59.822Z,72.01
2022-12-03T12:03:02.180Z,74.57
2022-12-03T12:06:14.517Z,74.78
2022-12-03T12:09:49.009Z,71.25
2022-12-03T12:12:55.081Z,69.32
2022-12-03T12:15:58.824Z,69.97
2022-12-03T12:19:27.889Z,71.86
2022-12-03T12:22:31.251Z,70.20
2022-12-03T12:25:39.671Z,70.65
2022-12-03T12:28:41.845Z,71.13
2022-12-03T12:31:44.179Z,74.10
2022-12-03T12:34:48.794Z,76.41
2022-12-03T12:38:07.751Z,79.12
2022-12-03T12:41:10.243Z,80.44
2022-12-03T12:44:15.575Z,82.35
2022-12-03T12:47:17.983Z,83.36
2022-12-03T12:50:20.320Z,84.20
2022-12-03T12:53:25.166Z,84.75
2022-12-03T12:56:32.130Z,85.22
2022-12-03T12:59:36.244Z,85.34
2022-12-03T13:02:51.538Z,85.14
2022-12-03T13:05:56.684Z,84.94
2022-12-03T13:09:01.272Z,84.74
2022-12-03T13:12:04.259Z,84.11
2022-12-03T13:15:27.151Z,83.97
2022-12-03T13:18:54.862Z,84.30
2022-12-03T13:22:01.196Z,84.67
2022-12-03T13:25:58.195Z,84.59
2022-12-03T13:28:57.928Z,84.96
2022-12-03T13:32:02.745Z,85.25
2022-12-03T13:35:17.527Z,85.81
2022-12-03T13:38:21.382Z,86.25
2022-12-03T13:41:42.225Z,86.45
2022-12-03T13:44:47.604Z,86.60
2022-12-03T13:47:53.936Z,87.23
2022-12-03T13:50:56.223Z,87.60
2022-12-03T13:54:00.077Z,88.11
2022-12-03T13:57:05.124Z,88.18
2022-12-03T14:00:08.094Z,88.69
2022-12-03T14:03:14.671Z,88.77
2022-12-03T14:06:16.987Z,89.26
2022-12-03T14:09:19.189Z,88.83
2022-12-03T14:12:27.104Z,88.79
2022-12-03T14:15:29.286Z,89.01
2022-12-03T14:18:31.904Z,89.30
2022-12-03T14:21:34.121Z,89.47
2022-12-03T14:24:37.673Z,89.75
2022-12-03T14:27:39.848Z,89.66
2022-12-03T14:30:42.106Z,90.38
2022-12-03T14:33:44.296Z,90.20
2022-12-03T14:36:46.611Z,90.39
2022-12-03T14:39:48.855Z,90.63
2022-12-03T14:42:51.145Z,90.85
2022-12-03T14:45:53.451Z,90.97
2022-12-03T14:48:56.355Z,90.88
2022-12-03T14:51:58.684Z,91.35
2022-12-03T14:55:00.898Z,90.61
2022-12-03T14:58:03.677Z,90.91
2022-12-03T15:01:06.155Z,91.05
2022-12-03T15:04:08.513Z,91.64
2022-12-03T15:07:10.820Z,91.56
2022-12-03T15:10:13.069Z,91.74
2022-12-03T15:13:15.339Z,91.92
2022-12-03T15:16:17.702Z,91.69
2022-12-03T15:19:21.443Z,91.73
2022-12-03T15:22:23.657Z,91.94
2022-12-03T15:25:26.183Z,91.43
2022-12-03T15:28:34.834Z,91.82
2022-12-03T15:31:37.184Z,91.85
2022-12-03T15:34:39.425Z,92.07
2022-12-03T15:37:41.654Z,92.15
2022-12-03T15:40:44.181Z,91.55
2022-12-03T15:43:48.054Z,91.17
2022-12-03T15:46:50.232Z,91.57
2022-12-03T15:49:52.908Z,91.55
2022-12-03T15:52:55.403Z,91.82
2022-12-03T15:55:57.650Z,91.83
2022-12-03T15:58:59.852Z,91.54
2022-12-03T16:02:02.096Z,91.74
2022-12-03T16:05:07.279Z,91.65
2022-12-03T16:08:09.665Z,91.49
2022-12-03T16:11:11.842Z,91.57
2022-12-03T16:14:32.288Z,91.66
2022-12-03T16:17:34.607Z,91.29
2022-12-03T16:20:39.902Z,91.83
2022-12-03T16:23:42.491Z,91.26
2022-12-03T16:26:44.753Z,91.25
2022-12-03T16:29:48.227Z,91.67
2022-12-03T16:32:50.634Z,91.62
2022-12-03T16:35:52.849Z,92.21
2022-12-03T16:38:55.120Z,91.93
2022-12-03T16:41:57.351Z,91.79
2022-12-03T16:44:59.658Z,92.10
2022-12-03T16:48:02.409Z,92.15
2022-12-03T16:51:04.794Z,92.26
2022-12-03T16:54:07.004Z,92.41
2022-12-03T16:57:09.349Z,92.11
2022-12-03T17:00:12.030Z,92.32
2022-12-03T17:03:14.643Z,92.61
2022-12-03T17:06:16.847Z,92.31
2022-12-03T17:09:19.114Z,92.16
2022-12-03T17:12:21.320Z,92.26
2022-12-03T17:15:23.572Z,92.40
2022-12-03T17:18:25.844Z,92.13
2022-12-03T17:21:33.475Z,92.57
2022-12-03T17:24:36.991Z,92.81
2022-12-03T17:27:44.800Z,93.08
2022-12-03T17:30:47.699Z,93.34
2022-12-03T17:33:50.019Z,94.10
2022-12-03T17:36:52.226Z,94.50
2022-12-03T17:39:54.707Z,94.71
2022-12-03T17:42:57.083Z,95.33
2022-12-03T17:46:01.492Z,95.75
2022-12-03T17:49:03.821Z,95.99
2022-12-03T17:52:06.134Z,96.04
2022-12-03T17:55:12.780Z,96.12
2022-12-03T17:58:15.509Z,95.69
2022-12-03T18:01:17.819Z,95.88
2022-12-03T18:04:20.204Z,95.54
2022-12-03T18:07:24.880Z,95.62
2022-12-03T18:10:27.262Z,95.80
2022-12-03T18:13:29.436Z,95.75
2022-12-03T18:16:31.778Z,96.03
2022-12-03T18:19:33.995Z,96.94
2022-12-03T18:22:36.903Z,97.00
2022-12-03T18:25:39.368Z,96.66
2022-12-03T18:28:41.662Z,96.30
2022-12-03T18:31:43.924Z,96.08
2022-12-03T18:34:46.221Z,96.22
2022-12-03T18:37:50.036Z,96.00
2022-12-03T18:40:55.435Z,96.00
2022-12-03T18:43:57.657Z,96.08
2022-12-03T18:47:00.051Z,96.09
2022-12-03T18:50:02.402Z,96.22
2022-12-03T18:53:07.114Z,96.27
2022-12-03T18:56:17.836Z,96.19
2022-12-03T18:59:20.117Z,95.91
2022-12-03T19:05:45.151Z,96.18
2022-12-03T19:08:49.303Z,96.34
2022-12-03T19:11:51.575Z,96.39
2022-12-03T19:14:53.756Z,96.33
2022-12-03T19:17:56.028Z,96.33
2022-12-03T19:20:58.263Z,96.45
2022-12-03T19:24:23.394Z,96.65
2022-12-03T19:27:23.178Z,97.30
2022-12-03T19:30:25.545Z,97.59
2022-12-03T19:33:28.815Z,97.52
2022-12-03T19:36:32.332Z,97.42
2022-12-03T19:39:34.724Z,97.48
2022-12-03T19:42:36.990Z,97.72
2022-12-03T19:45:39.248Z,98.89
2022-12-03T19:48:41.732Z,98.39
2022-12-03T19:51:44.131Z,99.00
2022-12-03T19:54:46.387Z,98.94
2022-12-03T19:57:48.778Z,98.34
2022-12-03T20:00:51.054Z,98.61
2022-12-03T20:03:55.207Z,98.41
2022-12-03T20:06:57.468Z,98.41
2022-12-03T20:09:59.793Z,97.79
2022-12-03T20:13:02.150Z,97.39
2022-12-03T20:16:09.186Z,97.18
2022-12-03T20:19:13.744Z,97.21
2022-12-03T20:22:15.947Z,97.11
2022-12-03T20:25:18.343Z,97.17
2022-12-03T20:28:20.744Z,96.90
2022-12-03T20:31:28.257Z,97.08
2022-12-03T20:34:30.579Z,96.93
2022-12-03T20:37:32.994Z,96.78
2022-12-03T20:40:39.017Z,96.91
2022-12-03T20:43:41.675Z,96.93
2022-12-03T20:46:44.001Z,97.00
2022-12-03T20:49:47.039Z,97.01
2022-12-03T20:53:16.185Z,96.61
2022-12-03T20:56:18.674Z,96.46
2022-12-03T20:59:20.886Z,95.94
2022-12-03T21:02:23.212Z,95.74
2022-12-03T21:05:25.475Z,95.43
2022-12-03T21:08:40.588Z,95.07
2022-12-03T21:11:44.079Z,95.23
2022-12-03T21:14:46.392Z,95.29
2022-12-03T21:17:48.619Z,95.31
2022-12-03T21:20:50.893Z,95.55
2022-12-03T21:23:53.113Z,95.46
2022-12-03T21:26:55.976Z,95.59
2022-12-03T21:29:58.159Z,95.68
2022-12-03T21:33:00.428Z,95.76
2022-12-03T21:36:03.327Z,96.22
2022-12-03T21:39:06.456Z,96.04
2022-12-03T21:42:22.172Z,95.95
2022-12-03T21:45:30.928Z,95.91
2022-12-03T21:48:33.775Z,95.76
2022-12-03T21:51:36.074Z,95.93
2022-12-03T21:54:38.342Z,95.86
2022-12-03T21:57:40.612Z,95.94
2022-12-03T22:00:42.824Z,96.06
2022-12-03T22:03:45.366Z,96.23
2022-12-03T22:06:47.549Z,96.07
2022-12-03T22:09:49.847Z,96.29
2022-12-03T22:12:52.066Z,96.56
2022-12-03T22:15:54.402Z,96.65
2022-12-03T22:18:56.595Z,96.40
2022-12-03T22:21:58.848Z,96.61
2022-12-03T22:25:01.072Z,96.91
2022-12-03T22:28:03.480Z,97.04
2022-12-03T22:31:09.363Z,96.88
2022-12-03T22:34:11.745Z,96.91
2022-12-03T22:37:14.019Z,97.01
2022-12-03T22:40:16.604Z,97.36
2022-12-03T22:43:19.224Z,97.41
2022-12-03T22:46:21.530Z,97.30
2022-12-03T22:49:23.816Z,97.48
2022-12-03T22:52:26.087Z,97.53
2022-12-03T22:55:28.295Z,97.41
2022-12-03T22:58:31.699Z,97.68
2022-12-03T23:01:37.123Z,97.49
2022-12-03T23:04:39.405Z,97.49
2022-12-03T23:07:41.704Z,97.53
2022-12-03T23:10:46.336Z,97.44
2022-12-03T23:13:48.774Z,97.29
2022-12-03T23:16:51.012Z,97.56
2022-12-03T23:19:53.563Z,97.62
2022-12-03T23:22:56.244Z,97.61
2022-12-03T23:26:08.772Z,97.65
2022-12-03T23:29:11.109Z,97.58
2022-12-03T23:32:13.459Z,97.60
2022-12-03T23:35:15.690Z,97.64
2022-12-03T23:38:18.376Z,97.64
2022-12-03T23:41:22.649Z,97.73
2022-12-03T23:44:24.980Z,97.79
2022-12-03T23:47:27.266Z,97.75
2022-12-03T23:50:29.884Z,97.83
2022-12-03T23:53:32.711Z,97.90
2022-12-03T23:56:34.925Z,98.01
2022-12-03T23:59:39.167Z,97.77
